sensor_id;sensor_type;location;lat;lon;timestamp;pressure;altitude;pressure_sealevel;temperature;humidity
44481;BME280;30184;42.018;23.670;2022-08-01T00:00:08;91323.56;;;12.98;79.74
44481;BME280;30184;42.018;23.670;2022-08-01T00:03:08;91578.16;;;15.21;80.41
44481;BME280;30184;42.018;23.670;2022-08-01T00:06:10;91431.47;;;14.49;81.71
44481;BME280;30184;42.018;23.670;2022-08-01T00:08:40;91151.72;;;12.20;80.13
44481;BME280;30184;42.018;23.670;2022-08-01T00:11:18;91051.00;;;11.43;81.92
44481;BME280;30184;42.018;23.670;2022-08-01T00:14:24;91117.88;;;12.21;80.92
44481;BME280;30184;42.018;23.670;2022-08-01T00:17:25;91141.06;;;13.07;81.96
44481;BME280;30184;42.018;23.670;2022-08-01T00:19:56;91288.09;;;13.75;80.53
44481;BME280;30184;42.018;23.670;2022-08-01T00:22:26;91266.44;;;13.44;79.70
44481;BME280;30184;42.018;23.670;2022-08-01T00:24:55;91313.25;;;13.33;80.15
44481;BME280;30184;42.018;23.670;2022-08-01T00:27:28;91113.31;;;12.09;81.08
44481;BME280;30184;42.018;23.670;2022-08-01T00:30:01;91143.59;;;12.38;81.34
44481;BME280;30184;42.018;23.670;2022-08-01T00:32:32;90876.78;;;11.23;81.50
44481;BME280;30184;42.018;23.670;2022-08-01T00:35:01;91272.94;;;13.47;81.84
44481;BME280;30184;42.018;23.670;2022-08-01T00:37:30;91264.22;;;12.84;81.17
44481;BME280;30184;42.018;23.670;2022-08-01T00:40:00;91327.91;;;14.09;80.56
44481;BME280;30184;42.018;23.670;2022-08-01T00:42:31;90902.44;;;11.31;80.43
44481;BME280;30184;42.018;23.670;2022-08-01T00:45:00;91337.94;;;13.48;81.59
44481;BME280;30184;42.018;23.670;2022-08-01T00:47:30;91159.88;;;13.33;82.77
44481;BME280;30184;42.018;23.670;2022-08-01T00:49:59;91471.97;;;14.60;83.20
44481;BME280;30184;42.018;23.670;2022-08-01T00:52:28;91055.25;;;11.84;83.31
44481;BME280;30184;42.018;23.670;2022-08-01T00:54:58;90971.16;;;11.50;82.76
44481;BME280;30184;42.018;23.670;2022-08-01T00:57:27;91139.19;;;12.22;81.79
44481;BME280;30184;42.018;23.670;2022-08-01T00:59:58;91216.84;;;12.73;80.76
44481;BME280;30184;42.018;23.670;2022-08-01T01:02:28;91128.03;;;11.89;81.54
44481;BME280;30184;42.018;23.670;2022-08-01T01:05:00;91066.28;;;11.59;81.24
44481;BME280;30184;42.018;23.670;2022-08-01T01:07:34;91020.88;;;11.69;82.86
44481;BME280;30184;42.018;23.670;2022-08-01T01:10:11;91465.72;;;14.13;84.54
44481;BME280;30184;42.018;23.670;2022-08-01T01:12:44;91236.16;;;13.15;84.80
44481;BME280;30184;42.018;23.670;2022-08-01T01:15:22;91232.91;;;12.89;84.52
44481;BME280;30184;42.018;23.670;2022-08-01T01:17:58;90957.97;;;11.21;83.39
44481;BME280;30184;42.018;23.670;2022-08-01T01:20:31;91182.44;;;12.29;83.66
44481;BME280;30184;42.018;23.670;2022-08-01T01:23:20;91239.13;;;13.07;84.91
44481;BME280;30184;42.018;23.670;2022-08-01T01:26:04;91234.00;;;12.42;85.45
44481;BME280;30184;42.018;23.670;2022-08-01T01:29:02;91558.59;;;14.68;85.59
44481;BME280;30184;42.018;23.670;2022-08-01T01:31:36;91278.41;;;13.37;84.88
44481;BME280;30184;42.018;23.670;2022-08-01T01:34:11;91079.72;;;11.93;84.80
44481;BME280;30184;42.018;23.670;2022-08-01T01:36:43;91089.97;;;11.89;85.35
44481;BME280;30184;42.018;23.670;2022-08-01T01:39:14;91301.25;;;13.31;86.16
44481;BME280;30184;42.018;23.670;2022-08-01T01:41:45;90967.63;;;11.31;85.91
44481;BME280;30184;42.018;23.670;2022-08-01T01:44:18;91021.44;;;11.14;86.08
44481;BME280;30184;42.018;23.670;2022-08-01T01:46:48;91007.88;;;10.83;86.13
44481;BME280;30184;42.018;23.670;2022-08-01T01:49:21;91189.47;;;11.78;86.48
44481;BME280;30184;42.018;23.670;2022-08-01T01:51:54;91118.31;;;12.19;86.56
44481;BME280;30184;42.018;23.670;2022-08-01T01:54:33;91477.63;;;13.70;86.77
44481;BME280;30184;42.018;23.670;2022-08-01T01:57:04;91537.56;;;14.19;86.64
44481;BME280;30184;42.018;23.670;2022-08-01T01:59:38;91226.16;;;12.04;86.34
44481;BME280;30184;42.018;23.670;2022-08-01T02:02:09;91350.53;;;12.65;86.51
44481;BME280;30184;42.018;23.670;2022-08-01T02:04:42;91226.06;;;12.66;86.37
44481;BME280;30184;42.018;23.670;2022-08-01T02:07:13;90963.28;;;9.85;86.21
44481;BME280;30184;42.018;23.670;2022-08-01T02:09:45;91032.41;;;10.58;86.05
44481;BME280;30184;42.018;23.670;2022-08-01T02:12:16;90930.84;;;10.28;86.45
44481;BME280;30184;42.018;23.670;2022-08-01T02:14:49;91153.13;;;11.63;86.82
44481;BME280;30184;42.018;23.670;2022-08-01T02:17:20;91139.34;;;10.82;86.85
44481;BME280;30184;42.018;23.670;2022-08-01T02:19:52;91327.41;;;12.08;87.09
44481;BME280;30184;42.018;23.670;2022-08-01T02:22:27;91057.59;;;10.80;86.75
44481;BME280;30184;42.018;23.670;2022-08-01T02:25:02;91157.88;;;11.49;86.93
44481;BME280;30184;42.018;23.670;2022-08-01T02:27:36;91290.31;;;12.63;87.18
44481;BME280;30184;42.018;23.670;2022-08-01T02:30:10;91246.56;;;11.21;86.88
44481;BME280;30184;42.018;23.670;2022-08-01T02:32:46;91092.63;;;10.88;86.38
44481;BME280;30184;42.018;23.670;2022-08-01T02:35:20;91132.16;;;11.41;86.33
44481;BME280;30184;42.018;23.670;2022-08-01T02:37:52;91247.97;;;12.13;86.43
44481;BME280;30184;42.018;23.670;2022-08-01T02:40:22;90869.34;;;9.25;86.62
44481;BME280;30184;42.018;23.670;2022-08-01T02:42:54;91145.66;;;10.45;86.13
44481;BME280;30184;42.018;23.670;2022-08-01T02:45:27;91135.88;;;10.47;85.97
44481;BME280;30184;42.018;23.670;2022-08-01T02:48:01;91225.19;;;11.45;85.69
44481;BME280;30184;42.018;23.670;2022-08-01T02:50:35;91095.94;;;10.48;85.30
44481;BME280;30184;42.018;23.670;2022-08-01T02:53:09;91283.50;;;11.97;85.73
44481;BME280;30184;42.018;23.670;2022-08-01T02:55:40;91220.00;;;11.82;86.11
44481;BME280;30184;42.018;23.670;2022-08-01T02:58:12;90949.81;;;9.94;85.29
44481;BME280;30184;42.018;23.670;2022-08-01T03:00:45;91102.25;;;9.98;85.33
44481;BME280;30184;42.018;23.670;2022-08-01T03:03:16;91365.84;;;12.19;85.70
44481;BME280;30184;42.018;23.670;2022-08-01T03:05:47;91079.06;;;9.84;85.24
44481;BME280;30184;42.018;23.670;2022-08-01T03:08:19;91367.09;;;11.49;86.13
44481;BME280;30184;42.018;23.670;2022-08-01T03:10:50;90921.91;;;9.50;86.27
44481;BME280;30184;42.018;23.670;2022-08-01T03:13:21;90891.16;;;8.71;86.79
44481;BME280;30184;42.018;23.670;2022-08-01T03:15:54;91346.59;;;12.05;87.87
44481;BME280;30184;42.018;23.670;2022-08-01T03:18:25;91202.72;;;10.54;87.34
44481;BME280;30184;42.018;23.670;2022-08-01T03:20:56;91217.00;;;10.67;87.67
44481;BME280;30184;42.018;23.670;2022-08-01T03:23:27;91216.28;;;10.89;87.58
44481;BME280;30184;42.018;23.670;2022-08-01T03:26:00;91117.09;;;9.93;87.11
44481;BME280;30184;42.018;23.670;2022-08-01T03:28:30;91164.53;;;10.10;86.86
44481;BME280;30184;42.018;23.670;2022-08-01T03:31:02;91483.53;;;12.76;87.11
44481;BME280;30184;42.018;23.670;2022-08-01T03:33:31;91189.00;;;10.58;87.11
44481;BME280;30184;42.018;23.670;2022-08-01T03:36:02;91181.56;;;10.11;86.79
44481;BME280;30184;42.018;23.670;2022-08-01T03:38:34;91156.56;;;9.69;86.56
44481;BME280;30184;42.018;23.670;2022-08-01T03:41:09;91228.56;;;10.08;85.94
44481;BME280;30184;42.018;23.670;2022-08-01T03:43:43;91302.84;;;10.48;85.47
44481;BME280;30184;42.018;23.670;2022-08-01T03:46:19;91324.63;;;11.08;86.75
44481;BME280;30184;42.018;23.670;2022-08-01T03:48:50;91176.84;;;10.28;86.62
44481;BME280;30184;42.018;23.670;2022-08-01T03:51:23;91068.78;;;10.14;86.59
44481;BME280;30184;42.018;23.670;2022-08-01T03:53:55;91175.44;;;10.58;86.13
44481;BME280;30184;42.018;23.670;2022-08-01T03:56:30;91080.91;;;9.74;86.65
44481;BME280;30184;42.018;23.670;2022-08-01T03:59:01;91323.63;;;11.49;86.79
44481;BME280;30184;42.018;23.670;2022-08-01T04:01:33;91127.50;;;10.07;86.59
44481;BME280;30184;42.018;23.670;2022-08-01T04:04:02;91301.91;;;10.55;85.97
44481;BME280;30184;42.018;23.670;2022-08-01T04:06:33;91177.38;;;9.97;85.88
44481;BME280;30184;42.018;23.670;2022-08-01T04:09:06;91040.06;;;9.69;86.30
44481;BME280;30184;42.018;23.670;2022-08-01T04:11:39;91095.81;;;10.04;84.65
44481;BME280;30184;42.018;23.670;2022-08-01T04:14:08;91083.88;;;10.27;85.00
44481;BME280;30184;42.018;23.670;2022-08-01T04:16:39;91223.22;;;9.92;85.21
44481;BME280;30184;42.018;23.670;2022-08-01T04:19:08;91130.00;;;9.64;83.95
44481;BME280;30184;42.018;23.670;2022-08-01T04:21:38;91355.34;;;11.52;84.99
44481;BME280;30184;42.018;23.670;2022-08-01T04:24:10;91074.81;;;9.83;84.95
44481;BME280;30184;42.018;23.670;2022-08-01T04:26:43;91254.69;;;11.34;85.39
44481;BME280;30184;42.018;23.670;2022-08-01T04:29:16;91243.22;;;10.36;85.10
44481;BME280;30184;42.018;23.670;2022-08-01T04:31:49;91161.44;;;9.99;84.45
44481;BME280;30184;42.018;23.670;2022-08-01T04:34:22;91235.50;;;10.22;83.68
44481;BME280;30184;42.018;23.670;2022-08-01T04:36:54;91240.53;;;10.83;84.47
44481;BME280;30184;42.018;23.670;2022-08-01T04:39:24;91090.34;;;9.07;84.35
44481;BME280;30184;42.018;23.670;2022-08-01T04:41:58;91032.41;;;9.42;83.70
44481;BME280;30184;42.018;23.670;2022-08-01T04:44:31;91098.06;;;11.09;80.35
44481;BME280;30184;42.018;23.670;2022-08-01T04:47:05;91565.13;;;14.98;76.69
44481;BME280;30184;42.018;23.670;2022-08-01T04:49:35;91155.31;;;13.02;72.10
44481;BME280;30184;42.018;23.670;2022-08-01T04:52:07;91086.97;;;13.61;69.06
44481;BME280;30184;42.018;23.670;2022-08-01T04:54:38;91286.13;;;16.50;66.03
44481;BME280;30184;42.018;23.670;2022-08-01T04:57:15;91062.25;;;14.92;61.58
44481;BME280;30184;42.018;23.670;2022-08-01T04:59:45;91048.63;;;15.07;59.60
44481;BME280;30184;42.018;23.670;2022-08-01T05:02:18;91166.03;;;16.43;59.57
44481;BME280;30184;42.018;23.670;2022-08-01T05:04:48;91207.81;;;16.73;58.36
44481;BME280;30184;42.018;23.670;2022-08-01T05:07:17;91342.78;;;18.80;57.56
44481;BME280;30184;42.018;23.670;2022-08-01T05:09:47;91077.56;;;17.64;56.07
44481;BME280;30184;42.018;23.670;2022-08-01T05:12:17;91030.81;;;17.27;54.60
44481;BME280;30184;42.018;23.670;2022-08-01T05:14:51;91401.81;;;20.21;52.84
44481;BME280;30184;42.018;23.670;2022-08-01T05:17:22;91102.38;;;17.75;52.32
44481;BME280;30184;42.018;23.670;2022-08-01T05:19:51;90927.84;;;17.26;51.52
44481;BME280;30184;42.018;23.670;2022-08-01T05:22:20;91190.22;;;18.33;51.82
44481;BME280;30184;42.018;23.670;2022-08-01T05:24:57;91121.88;;;18.83;52.08
44481;BME280;30184;42.018;23.670;2022-08-01T05:27:36;91237.44;;;19.96;51.13
44481;BME280;30184;42.018;23.670;2022-08-01T05:30:08;91200.03;;;19.13;52.21
44481;BME280;30184;42.018;23.670;2022-08-01T05:32:41;91189.09;;;19.72;50.80
44481;BME280;30184;42.018;23.670;2022-08-01T05:35:12;91404.56;;;20.16;52.91
44481;BME280;30184;42.018;23.670;2022-08-01T05:37:45;91111.66;;;17.83;53.54
44481;BME280;30184;42.018;23.670;2022-08-01T05:40:14;91243.06;;;19.16;54.21
44481;BME280;30184;42.018;23.670;2022-08-01T05:42:44;90925.94;;;17.06;54.32
44481;BME280;30184;42.018;23.670;2022-08-01T05:45:13;91065.28;;;17.60;55.05
44481;BME280;30184;42.018;23.670;2022-08-01T05:47:47;91185.81;;;17.63;55.31
44481;BME280;30184;42.018;23.670;2022-08-01T05:50:20;90986.59;;;16.27;55.96
44481;BME280;30184;42.018;23.670;2022-08-01T05:52:53;91011.72;;;16.87;56.89
44481;BME280;30184;42.018;23.670;2022-08-01T05:55:29;91172.28;;;16.78;55.92
44481;BME280;30184;42.018;23.670;2022-08-01T05:58:03;91028.00;;;16.35;56.56
44481;BME280;30184;42.018;23.670;2022-08-01T06:00:33;91357.97;;;18.49;56.85
44481;BME280;30184;42.018;23.670;2022-08-01T06:03:06;91115.38;;;16.68;58.48
44481;BME280;30184;42.018;23.670;2022-08-01T06:05:38;91156.91;;;17.22;57.50
44481;BME280;30184;42.018;23.670;2022-08-01T06:08:10;91103.03;;;16.78;59.60
44481;BME280;30184;42.018;23.670;2022-08-01T06:10:40;91288.34;;;17.86;58.18
44481;BME280;30184;42.018;23.670;2022-08-01T06:13:09;91055.44;;;16.20;58.43
44481;BME280;30184;42.018;23.670;2022-08-01T06:15:39;91114.16;;;16.54;58.43
44481;BME280;30184;42.018;23.670;2022-08-01T06:18:09;91524.47;;;19.02;58.39
44481;BME280;30184;42.018;23.670;2022-08-01T06:20:39;91062.50;;;16.27;59.32
44481;BME280;30184;42.018;23.670;2022-08-01T06:23:20;91207.69;;;18.04;60.26
44481;BME280;30184;42.018;23.670;2022-08-01T06:26:06;91004.34;;;15.97;57.81
44481;BME280;30184;42.018;23.670;2022-08-01T06:28:37;91289.88;;;18.59;58.23
44481;BME280;30184;42.018;23.670;2022-08-01T06:31:07;90978.69;;;16.15;57.44
44481;BME280;30184;42.018;23.670;2022-08-01T06:33:39;91065.03;;;16.86;57.75
44481;BME280;30184;42.018;23.670;2022-08-01T06:36:09;90855.97;;;15.87;57.00
44481;BME280;30184;42.018;23.670;2022-08-01T06:38:39;91043.38;;;16.67;55.48
44481;BME280;30184;42.018;23.670;2022-08-01T06:41:08;91201.25;;;18.38;53.24
44481;BME280;30184;42.018;23.670;2022-08-01T06:43:38;90848.16;;;16.21;53.78
44481;BME280;30184;42.018;23.670;2022-08-01T06:46:07;90990.94;;;17.58;53.83
44481;BME280;30184;42.018;23.670;2022-08-01T06:48:36;90951.53;;;16.98;52.82
44481;BME280;30184;42.018;23.670;2022-08-01T06:51:08;90969.88;;;16.86;51.78
44481;BME280;30184;42.018;23.670;2022-08-01T06:53:39;91051.19;;;17.46;51.62
44481;BME280;30184;42.018;23.670;2022-08-01T06:56:14;91175.22;;;18.02;54.38
44481;BME280;30184;42.018;23.670;2022-08-01T06:58:43;91103.19;;;18.92;51.25
44481;BME280;30184;42.018;23.670;2022-08-01T07:01:13;91144.19;;;18.90;51.89
44481;BME280;30184;42.018;23.670;2022-08-01T07:03:42;91166.66;;;18.52;51.76
44481;BME280;30184;42.018;23.670;2022-08-01T07:06:12;91118.88;;;18.44;52.08
44481;BME280;30184;42.018;23.670;2022-08-01T07:08:42;90958.13;;;18.11;51.56
44481;BME280;30184;42.018;23.670;2022-08-01T07:11:11;91201.03;;;19.58;53.45
44481;BME280;30184;42.018;23.670;2022-08-01T07:13:41;91240.47;;;19.92;52.33
44481;BME280;30184;42.018;23.670;2022-08-01T07:16:11;91125.72;;;19.61;51.65
44481;BME280;30184;42.018;23.670;2022-08-01T07:18:40;91145.59;;;19.99;52.25
44481;BME280;30184;42.018;23.670;2022-08-01T07:21:09;91017.31;;;18.12;50.56
44481;BME280;30184;42.018;23.670;2022-08-01T07:23:40;91364.91;;;20.56;50.23
44481;BME280;30184;42.018;23.670;2022-08-01T07:26:12;91070.38;;;19.43;52.19
44481;BME280;30184;42.018;23.670;2022-08-01T07:28:42;91125.28;;;19.91;49.36
44481;BME280;30184;42.018;23.670;2022-08-01T07:31:11;90932.13;;;18.01;47.93
44481;BME280;30184;42.018;23.670;2022-08-01T07:33:40;90956.75;;;18.33;48.07
44481;BME280;30184;42.018;23.670;2022-08-01T07:36:10;91051.25;;;19.06;48.43
44481;BME280;30184;42.018;23.670;2022-08-01T07:38:40;91097.25;;;20.03;47.91
44481;BME280;30184;42.018;23.670;2022-08-01T07:41:10;91050.94;;;19.91;50.05
44481;BME280;30184;42.018;23.670;2022-08-01T07:43:39;91221.06;;;21.02;50.84
44481;BME280;30184;42.018;23.670;2022-08-01T07:46:12;91123.31;;;20.58;50.79
44481;BME280;30184;42.018;23.670;2022-08-01T07:48:41;91086.72;;;19.68;51.43
44481;BME280;30184;42.018;23.670;2022-08-01T07:51:11;90995.88;;;19.80;49.70
44481;BME280;30184;42.018;23.670;2022-08-01T07:53:42;91121.81;;;20.52;49.86
44481;BME280;30184;42.018;23.670;2022-08-01T07:56:11;90946.78;;;19.28;50.02
44481;BME280;30184;42.018;23.670;2022-08-01T07:58:40;91138.00;;;21.05;51.87
44481;BME280;30184;42.018;23.670;2022-08-01T08:01:10;91179.25;;;21.61;49.52
44481;BME280;30184;42.018;23.670;2022-08-01T08:03:39;91034.91;;;20.17;48.20
44481;BME280;30184;42.018;23.670;2022-08-01T08:06:12;91328.06;;;22.04;49.49
44481;BME280;30184;42.018;23.670;2022-08-01T08:08:47;90982.03;;;20.30;46.10
44481;BME280;30184;42.018;23.670;2022-08-01T08:11:43;91280.34;;;22.91;47.72
44481;BME280;30184;42.018;23.670;2022-08-01T08:19:12;90980.31;;;20.38;46.64
44481;BME280;30184;42.018;23.670;2022-08-01T08:21:47;90813.16;;;19.83;46.22
44481;BME280;30184;42.018;23.670;2022-08-01T08:24:43;91260.94;;;23.26;47.01
44481;BME280;30184;42.018;23.670;2022-08-01T08:28:48;91352.50;;;23.34;46.32
44481;BME280;30184;42.018;23.670;2022-08-01T08:31:51;91262.34;;;23.38;46.57
44481;BME280;30184;42.018;23.670;2022-08-01T08:45:28;90925.53;;;21.16;44.18
44481;BME280;30184;42.018;23.670;2022-08-01T08:52:09;91242.69;;;24.34;41.85
44481;BME280;30184;42.018;23.670;2022-08-01T08:54:45;91153.97;;;23.04;40.37
44481;BME280;30184;42.018;23.670;2022-08-01T08:57:48;91246.66;;;24.38;39.83
44481;BME280;30184;42.018;23.670;2022-08-01T09:02:12;91241.56;;;24.42;38.17
44481;BME280;30184;42.018;23.670;2022-08-01T09:04:46;91027.13;;;22.06;38.77
44481;BME280;30184;42.018;23.670;2022-08-01T09:08:45;91135.88;;;23.47;38.33
44481;BME280;30184;42.018;23.670;2022-08-01T09:11:34;90888.03;;;21.38;40.10
44481;BME280;30184;42.018;23.670;2022-08-01T09:14:10;90890.59;;;21.90;38.10
44481;BME280;30184;42.018;23.670;2022-08-01T09:16:42;90875.41;;;21.48;37.54
44481;BME280;30184;42.018;23.670;2022-08-01T09:19:47;90903.53;;;21.76;38.30
44481;BME280;30184;42.018;23.670;2022-08-01T09:22:59;91228.94;;;24.79;37.86
44481;BME280;30184;42.018;23.670;2022-08-01T09:35:31;91214.00;;;25.01;37.72
44481;BME280;30184;42.018;23.670;2022-08-01T09:46:20;91205.91;;;25.16;37.41
44481;BME280;30184;42.018;23.670;2022-08-01T10:17:12;90770.84;;;22.87;36.80
44481;BME280;30184;42.018;23.670;2022-08-01T10:30:02;90846.44;;;22.95;36.62
44481;BME280;30184;42.018;23.670;2022-08-01T11:58:05;91259.88;;;26.92;35.41
